Time;durP1;ratioP1;P1;durP2;ratioP2;P2;SDS_P1;SDS_P2;PMS_P1;PMS_P2;Temp;Humidity;BMP_temperature;BMP_pressure;BME280_temperature;BME280_humidity;BME280_pressure;Samples;Min_cycle;Max_cycle;Signal;HPM_P1;HPM_P2
2021/08/01 00:01:46;;;;;;;26.55;15.58;;;;;;;20.82;79.93;100809.63;1928359;74;21042;-62
2021/08/01 00:04:15;;;;;;;27.77;16.60;;;;;;;20.80;80.33;100808.03;1928531;74;21104;-62
2021/08/01 00:06:44;;;;;;;24.98;16.90;;;;;;;20.75;80.71;100807.55;1928445;74;21092;-62
2021/08/01 00:09:12;;;;;;;31.40;18.37;;;;;;;20.68;80.93;100809.89;1928263;74;21038;-62
2021/08/01 00:11:41;;;;;;;27.73;19.02;;;;;;;20.65;81.04;100810.13;1928354;74;21046;-62
2021/08/01 00:14:10;;;;;;;34.63;23.35;;;;;;;20.63;81.12;100805.39;1928361;74;21034;-62
2021/08/01 00:16:39;;;;;;;29.18;18.73;;;;;;;20.60;81.18;100809.17;1928425;74;21590;-62
2021/08/01 00:19:08;;;;;;;28.05;18.02;;;;;;;20.56;81.32;100809.50;1928353;74;21046;-62
2021/08/01 00:21:36;;;;;;;33.78;17.85;;;;;;;20.56;81.24;100807.66;1928299;74;21039;-63
2021/08/01 00:24:06;;;;;;;27.42;16.23;;;;;;;20.53;81.31;100808.43;1928382;74;21112;-62
2021/08/01 00:26:34;;;;;;;34.50;17.75;;;;;;;20.52;81.18;100805.38;1928458;74;21026;-62
2021/08/01 00:29:03;;;;;;;29.52;18.05;;;;;;;20.48;81.35;100804.77;1928332;74;21034;-62
2021/08/01 00:31:32;;;;;;;27.77;19.07;;;;;;;20.44;81.58;100801.48;1928408;74;21085;-61
2021/08/01 00:34:01;;;;;;;27.95;19.07;;;;;;;20.43;81.71;100805.61;1928440;74;21038;-62
2021/08/01 00:36:30;;;;;;;26.07;18.12;;;;;;;20.40;81.77;100806.72;1928701;74;21073;-62
2021/08/01 00:38:59;;;;;;;27.58;17.15;;;;;;;20.39;81.62;100799.66;1928480;74;21136;-61
2021/08/01 00:41:28;;;;;;;24.95;16.37;;;;;;;20.36;81.91;100797.25;1928537;74;21136;-61
2021/08/01 00:43:57;;;;;;;30.90;17.62;;;;;;;20.35;81.77;100806.23;1928370;74;21044;-62
2021/08/01 00:46:25;;;;;;;30.40;18.87;;;;;;;20.34;81.69;100811.20;1928446;74;21010;-62
2021/08/01 00:48:54;;;;;;;26.27;18.02;;;;;;;20.32;81.72;100814.98;1928363;74;21137;-62
2021/08/01 00:51:23;;;;;;;28.65;17.67;;;;;;;20.30;81.96;100817.77;1928471;74;21124;-62
2021/08/01 00:53:52;;;;;;;33.28;16.85;;;;;;;20.29;81.96;100816.55;1928624;74;21453;-62
2021/08/01 00:56:22;;;;;;;31.42;17.70;;;;;;;20.28;81.93;100813.52;1928564;74;21066;-62
2021/08/01 00:58:51;;;;;;;25.72;17.02;;;;;;;20.27;81.85;100817.16;1928490;74;21066;-62
2021/08/01 01:01:23;;;;;;;29.23;16.93;;;;;;;20.21;82.17;100816.69;1928325;74;21159;-62
2021/08/01 01:03:53;;;;;;;31.20;17.67;;;;;;;20.21;82.06;100814.48;1928545;74;21509;-62
2021/08/01 01:06:53;;;;;;;23.70;14.90;;;;;;;20.19;82.13;100811.92;1928577;74;21038;-62
2021/08/01 01:09:35;;;;;;;27.20;16.80;;;;;;;20.19;82.04;100813.75;1928535;74;21030;-62
2021/08/01 01:12:09;;;;;;;25.72;16.75;;;;;;;20.17;82.06;100809.86;1924447;74;21156;-62
2021/08/01 01:14:41;;;;;;;24.20;14.98;;;;;;;20.16;82.00;100811.31;1928473;74;21132;-62
2021/08/01 01:17:13;;;;;;;25.65;16.17;;;;;;;20.16;81.82;100816.19;1928473;73;21179;-62
2021/08/01 01:19:59;;;;;;;24.47;15.55;;;;;;;20.16;81.95;100815.32;1928590;74;21014;-62
2021/08/01 01:22:42;;;;;;;29.92;15.72;;;;;;;20.15;82.03;100816.31;1927953;74;21595;-62
2021/08/01 01:25:38;;;;;;;26.10;16.25;;;;;;;20.12;82.12;100819.21;1928534;74;21152;-61
2021/08/01 01:28:13;;;;;;;28.42;18.40;;;;;;;20.09;82.19;100818.14;1928309;74;21058;-61
2021/08/01 01:30:45;;;;;;;26.70;16.67;;;;;;;20.05;82.65;100819.70;1925418;74;21218;-63
2021/08/01 01:33:16;;;;;;;32.35;16.60;;;;;;;20.02;82.64;100817.25;1926191;74;21517;-62
2021/08/01 01:35:49;;;;;;;26.95;17.45;;;;;;;20.01;82.75;100815.57;1928565;74;21074;-62
2021/08/01 01:38:20;;;;;;;27.50;16.95;;;;;;;19.97;82.72;100818.09;1928464;74;21128;-62
2021/08/01 01:40:53;;;;;;;27.50;16.57;;;;;;;19.95;82.89;100824.53;1923511;74;21529;-62
2021/08/01 01:43:36;;;;;;;25.12;16.32;;;;;;;19.91;83.15;100821.73;1926823;74;21082;-61
2021/08/01 01:46:06;;;;;;;27.62;18.20;;;;;;;19.87;83.26;100823.80;1928620;74;21014;-62
2021/08/01 01:48:36;;;;;;;25.55;16.02;;;;;;;19.83;83.17;100827.68;1928424;74;21042;-62
2021/08/01 01:51:07;;;;;;;27.20;15.58;;;;;;;19.81;83.00;100824.28;1897716;74;21058;-62
2021/08/01 01:53:36;;;;;;;23.07;15.95;;;;;;;19.80;82.95;100830.58;1928397;74;21139;-62
2021/08/01 01:56:06;;;;;;;25.37;15.05;;;;;;;19.76;83.10;100832.63;1928557;74;21486;-62
2021/08/01 01:58:36;;;;;;;23.75;16.15;;;;;;;19.73;82.96;100834.68;1928615;74;21038;-62
2021/08/01 02:01:05;;;;;;;25.27;15.55;;;;;;;19.72;82.96;100838.30;1927911;74;21505;-62
2021/08/01 02:03:35;;;;;;;21.80;13.83;;;;;;;19.69;83.01;100836.70;1927918;74;21030;-62
2021/08/01 02:06:17;;;;;;;26.05;15.30;;;;;;;19.68;83.03;100838.53;1927683;74;21559;-62
2021/08/01 02:09:09;;;;;;;23.10;15.30;;;;;;;19.67;82.71;100842.16;1925383;74;21054;-62
2021/08/01 02:12:11;;;;;;;24.57;15.53;;;;;;;19.64;82.96;100837.06;1926613;74;21127;-62
2021/08/01 02:14:56;;;;;;;28.38;17.82;;;;;;;19.59;82.97;100839.22;1927605;74;21069;-61
2021/08/01 02:18:05;;;;;;;26.23;18.95;;;;;;;19.58;83.35;100844.19;1924154;74;21058;-61
2021/08/01 02:20:49;;;;;;;33.02;20.40;;;;;;;19.59;83.69;100843.23;1927642;74;21070;-62
2021/08/01 02:23:27;;;;;;;28.38;18.85;;;;;;;19.61;83.71;100844.45;1926419;74;21469;-62
2021/08/01 02:25:58;;;;;;;35.78;20.60;;;;;;;19.64;83.62;100846.87;1927961;74;21023;-62
2021/08/01 02:28:31;;;;;;;31.33;19.70;;;;;;;19.63;83.51;100846.03;1927788;74;21030;-62
2021/08/01 02:31:01;;;;;;;30.60;19.25;;;;;;;19.64;83.37;100850.42;1927688;74;21088;-63
2021/08/01 02:33:33;;;;;;;32.20;18.80;;;;;;;19.65;83.28;100850.77;1927735;74;21554;-62
2021/08/01 02:36:20;;;;;;;36.00;20.27;;;;;;;19.66;83.16;100848.48;1927842;74;21108;-62
2021/08/01 02:38:53;;;;;;;39.27;19.48;;;;;;;19.71;83.01;100853.46;1928102;74;21159;-62
2021/08/01 02:41:27;;;;;;;32.63;18.05;;;;;;;19.73;82.91;100843.54;1927810;74;21528;-63
2021/08/01 02:43:58;;;;;;;44.15;18.82;;;;;;;19.75;82.79;100842.09;1927812;74;21066;-62
2021/08/01 02:46:30;;;;;;;28.55;17.65;;;;;;;19.75;82.72;100846.09;1927849;74;21570;-62
2021/08/01 02:49:02;;;;;;;27.27;17.87;;;;;;;19.76;82.87;100843.31;1927778;74;21156;-62
2021/08/01 02:51:32;;;;;;;33.90;18.05;;;;;;;19.81;82.82;100848.33;1927738;74;21109;-62
2021/08/01 02:54:03;;;;;;;32.03;16.80;;;;;;;19.90;82.72;100846.74;1927767;74;21078;-62
2021/08/01 02:56:36;;;;;;;25.15;16.77;;;;;;;19.97;82.59;100850.16;1927782;74;21062;-62
2021/08/01 02:59:07;;;;;;;29.82;19.40;;;;;;;20.04;82.44;100851.39;1927978;74;21128;-62
2021/08/01 03:01:37;;;;;;;35.98;17.55;;;;;;;20.13;82.31;100851.17;1927922;73;21140;-62
2021/08/01 03:04:07;;;;;;;32.67;17.73;;;;;;;20.28;82.08;100851.80;1927715;74;21477;-67
2021/08/01 03:06:36;;;;;;;25.08;15.70;;;;;;;20.42;81.59;100855.59;1926817;74;21557;-63
2021/08/01 03:09:06;;;;;;;23.87;14.55;;;;;;;20.57;81.26;100863.38;1927778;74;21519;-62
2021/08/01 03:11:35;;;;;;;24.55;12.80;;;;;;;20.71;80.91;100859.16;1941260;73;21445;-67
2021/08/01 03:14:06;;;;;;;24.80;13.90;;;;;;;20.83;80.45;100866.17;1961631;72;21091;-69
2021/08/01 03:16:35;;;;;;;20.55;13.62;;;;;;;20.92;80.30;100861.08;1961314;73;21019;-70
2021/08/01 03:19:04;;;;;;;26.52;13.50;;;;;;;20.98;80.12;100865.42;1961831;73;21050;-65
2021/08/01 03:21:34;;;;;;;25.65;13.45;;;;;;;21.07;80.12;100863.84;1946902;72;21095;-66
2021/08/01 03:24:14;;;;;;;20.50;12.58;;;;;;;21.11;79.77;100865.28;1925823;74;21127;-64
2021/08/01 03:26:44;;;;;;;21.80;12.98;;;;;;;21.15;79.53;100876.09;1932252;72;21037;-65
2021/08/01 03:29:13;;;;;;;18.42;12.68;;;;;;;21.18;79.15;100871.00;1961702;73;21066;-62
2021/08/01 03:31:42;;;;;;;19.50;12.88;;;;;;;21.22;78.90;100875.12;1961688;73;21047;-64
2021/08/01 03:34:11;;;;;;;22.48;13.20;;;;;;;21.24;78.82;100879.86;1962002;73;21050;-63
2021/08/01 03:36:40;;;;;;;19.57;13.93;;;;;;;21.32;78.84;100882.77;1945442;73;21050;-61
2021/08/01 03:39:14;;;;;;;21.57;12.70;;;;;;;21.45;78.75;100881.30;1927615;74;21053;-63
2021/08/01 03:41:44;;;;;;;20.32;11.45;;;;;;;21.62;78.53;100883.08;1944155;73;21551;-66
2021/08/01 03:44:15;;;;;;;21.02;12.35;;;;;;;21.77;78.19;100888.48;1960913;73;21089;-61
2021/08/01 03:46:43;;;;;;;22.15;11.48;;;;;;;21.91;77.83;100876.11;1961857;73;21072;-61
2021/08/01 03:49:12;;;;;;;17.20;11.22;;;;;;;22.02;77.47;100877.85;1961777;73;21139;-62
2021/08/01 03:51:41;;;;;;;17.82;11.78;;;;;;;22.16;77.13;100879.37;1961938;73;21107;-61
2021/08/01 03:54:10;;;;;;;15.93;11.73;;;;;;;22.32;76.96;100879.78;1961818;73;21118;-62
2021/08/01 03:56:46;;;;;;;17.67;11.12;;;;;;;22.49;76.52;100882.33;1961827;73;21029;-61
2021/08/01 03:59:14;;;;;;;21.45;11.83;;;;;;;22.65;76.16;100883.19;1961956;73;21102;-62
2021/08/01 04:01:43;;;;;;;17.42;12.10;;;;;;;22.86;75.86;100879.59;1961733;73;21142;-62
2021/08/01 04:04:12;;;;;;;24.10;14.25;;;;;;;22.99;75.19;100884.22;1961880;73;21032;-62
2021/08/01 04:06:41;;;;;;;23.62;13.95;;;;;;;23.15;74.77;100878.83;1961856;73;21068;-63
2021/08/01 04:09:09;;;;;;;26.00;14.33;;;;;;;23.30;74.47;100884.18;1961922;73;21158;-62
2021/08/01 04:11:43;;;;;;;22.05;13.95;;;;;;;23.49;73.93;100868.56;1961962;73;21102;-62
2021/08/01 04:14:08;;;;;;;24.65;14.13;;;;;;;23.71;73.63;100869.62;1961699;71;21008;-61
2021/08/01 04:16:38;;;;;;;22.87;12.95;;;;;;;24.00;73.20;100870.13;1961970;73;21056;-62
2021/08/01 04:19:11;;;;;;;29.77;13.65;;;;;;;24.28;72.58;100864.32;1961963;73;21052;-62
2021/08/01 04:21:44;;;;;;;20.88;12.63;;;;;;;24.56;72.01;100867.09;1961917;73;21123;-62
2021/08/01 04:24:13;;;;;;;22.93;12.37;;;;;;;24.87;71.62;100870.84;1962037;73;21118;-62
2021/08/01 04:26:42;;;;;;;21.82;12.93;;;;;;;25.18;71.05;100867.84;1961943;73;21158;-62
2021/08/01 04:29:11;;;;;;;21.75;12.00;;;;;;;25.45;70.26;100871.50;1961936;73;21040;-62
2021/08/01 04:31:41;;;;;;;22.82;12.33;;;;;;;25.71;69.60;100871.56;1961440;73;21053;-63
2021/08/01 04:34:29;;;;;;;18.52;10.32;;;;;;;25.92;68.81;100870.77;1859103;77;21097;-60
2021/08/01 04:36:57;;;;;;;20.57;11.15;;;;;;;26.19;68.27;100867.08;1858897;77;21017;-60
2021/08/01 04:39:26;;;;;;;17.70;10.60;;;;;;;26.42;67.61;100866.53;1858666;77;21130;-62
2021/08/01 04:41:58;;;;;;;17.98;10.65;;;;;;;26.65;66.88;100871.39;1859346;76;21058;-65
2021/08/01 04:44:26;;;;;;;18.05;11.00;;;;;;;26.83;66.08;100867.27;1864595;76;21046;-68
2021/08/01 04:46:54;;;;;;;15.60;10.65;;;;;;;27.02;65.38;100864.78;1865620;76;21061;-63
2021/08/01 04:49:23;;;;;;;18.80;10.48;;;;;;;27.16;64.93;100866.85;1855070;77;21086;-60
2021/08/01 04:51:52;;;;;;;16.95;10.13;;;;;;;27.33;64.36;100864.57;1855165;77;21090;-63
2021/08/01 04:54:26;;;;;;;18.98;9.78;;;;;;;27.49;63.98;100862.89;1855116;76;21078;-64
2021/08/01 04:57:09;;;;;;;16.62;9.95;;;;;;;27.76;63.76;100860.86;1828920;77;21417;-66
2021/08/01 04:59:54;;;;;;;17.85;9.93;;;;;;;28.03;63.44;100860.53;1781372;77;21124;-64
2021/08/01 05:02:27;;;;;;;19.10;10.63;;;;;;;28.30;62.63;100863.87;1809716;77;21112;-65
2021/08/01 05:05:01;;;;;;;17.70;9.63;;;;;;;28.56;62.03;100868.23;1855127;77;21124;-65
2021/08/01 05:07:31;;;;;;;16.05;10.30;;;;;;;28.81;61.65;100865.77;1859765;77;21171;-63
2021/08/01 05:10:07;;;;;;;15.53;9.03;;;;;;;29.07;60.94;100863.27;1855217;77;21566;-65
2021/08/01 05:12:38;;;;;;;10.50;8.08;;;;;;;29.33;60.33;100862.12;1832237;77;21115;-63
2021/08/01 05:15:10;;;;;;;10.78;8.10;;;;;;;29.60;60.10;100858.86;1854991;76;21093;-65
2021/08/01 05:17:39;;;;;;;12.73;8.33;;;;;;;29.95;59.27;100857.87;1854995;77;21476;-64
2021/08/01 05:20:09;;;;;;;11.73;7.70;;;;;;;30.15;57.75;100857.36;1855077;77;21104;-66
2021/08/01 05:22:38;;;;;;;13.85;7.60;;;;;;;30.33;57.57;100859.23;1855030;77;21847;-63
2021/08/01 05:25:07;;;;;;;14.47;7.95;;;;;;;30.63;56.96;100859.21;1855070;77;21070;-62
2021/08/01 05:27:36;;;;;;;15.85;7.33;;;;;;;30.86;55.78;100863.67;1855094;77;21127;-62
2021/08/01 05:30:05;;;;;;;9.80;7.25;;;;;;;30.84;55.31;100865.25;1854966;77;21062;-64
2021/08/01 05:32:35;;;;;;;12.03;7.42;;;;;;;30.98;55.13;100871.70;1855063;76;21155;-63
2021/08/01 05:35:04;;;;;;;9.13;7.17;;;;;;;31.09;55.08;100875.28;1870393;77;21038;-62
2021/08/01 05:37:32;;;;;;;10.32;7.97;;;;;;;31.33;54.72;100873.24;1870444;76;21077;-65
2021/08/01 05:40:01;;;;;;;13.08;7.53;;;;;;;31.36;52.26;100872.87;1874246;76;21147;-64
2021/08/01 05:42:31;;;;;;;11.78;7.67;;;;;;;31.36;52.57;100871.50;1900785;75;21059;-64
2021/08/01 05:45:00;;;;;;;11.97;7.83;;;;;;;31.60;51.94;100864.86;1906484;75;21110;-63
2021/08/01 05:47:28;;;;;;;10.93;8.00;;;;;;;31.92;51.52;100870.25;1880026;75;21131;-71
2021/08/01 05:49:57;;;;;;;12.90;8.15;;;;;;;32.26;51.20;100864.56;1873938;76;21111;-61
2021/08/01 05:52:26;;;;;;;12.58;7.80;;;;;;;32.56;50.91;100857.50;1874234;76;21081;-62
2021/08/01 05:54:55;;;;;;;11.55;7.40;;;;;;;32.94;50.23;100859.77;1874041;76;21097;-62
2021/08/01 05:57:23;;;;;;;12.33;7.42;;;;;;;33.28;49.49;100851.20;1873928;76;21116;-62
2021/08/01 05:59:52;;;;;;;12.43;7.80;;;;;;;33.65;49.06;100851.15;1874066;76;21077;-63
2021/08/01 06:02:21;;;;;;;12.47;7.70;;;;;;;33.85;47.91;100851.15;1874083;76;21147;-63
2021/08/01 06:04:51;;;;;;;17.15;8.98;;;;;;;34.05;47.17;100853.03;1873994;76;21147;-63
2021/08/01 06:07:20;;;;;;;12.93;8.45;;;;;;;34.13;46.36;100856.89;1874175;76;21053;-64
2021/08/01 06:09:49;;;;;;;11.57;7.75;;;;;;;34.39;46.02;100851.09;1874003;76;21046;-64
2021/08/01 06:12:17;;;;;;;10.45;8.35;;;;;;;34.66;45.32;100855.09;1874090;76;21131;-64
2021/08/01 06:14:51;;;;;;;11.50;8.53;;;;;;;34.90;45.19;100849.46;1874078;76;21081;-64
2021/08/01 06:17:20;;;;;;;10.90;7.83;;;;;;;34.98;43.91;100854.13;1874063;76;21119;-64
2021/08/01 06:19:50;;;;;;;10.78;7.90;;;;;;;34.96;44.10;100852.14;1874032;76;21437;-64
2021/08/01 06:22:19;;;;;;;12.88;8.20;;;;;;;35.16;43.63;100853.94;1873846;76;21155;-63
2021/08/01 06:24:48;;;;;;;13.28;7.42;;;;;;;35.29;43.11;100851.14;1874028;76;21061;-62
2021/08/01 06:27:16;;;;;;;9.08;7.55;;;;;;;35.55;42.40;100845.98;1874163;76;21049;-62
2021/08/01 06:29:46;;;;;;;10.50;7.87;;;;;;;35.65;42.42;100852.33;1874150;76;21069;-61
2021/08/01 06:32:14;;;;;;;10.75;7.70;;;;;;;35.80;41.69;100848.45;1873955;76;21100;-61
2021/08/01 06:34:43;;;;;;;10.82;7.80;;;;;;;35.80;41.26;100848.45;1868024;76;21105;-61
2021/08/01 06:37:12;;;;;;;10.58;7.90;;;;;;;35.91;41.07;100846.34;1863820;77;21085;-64
2021/08/01 06:39:45;;;;;;;10.32;7.45;;;;;;;35.95;40.06;100850.33;1864455;77;21057;-63
2021/08/01 06:42:13;;;;;;;11.43;7.37;;;;;;;36.10;39.60;100849.43;1864524;77;21088;-61
2021/08/01 06:47:31;;;;;;;11.28;7.03;;;;;;;36.37;39.26;100846.95;1830567;78;21504;-61
2021/08/01 06:50:00;;;;;;;12.43;7.58;;;;;;;36.48;38.60;100848.42;1830582;78;21087;-61
2021/08/01 06:52:29;;;;;;;11.50;7.20;;;;;;;36.69;38.64;100847.13;1830563;78;21076;-61
2021/08/01 06:54:57;;;;;;;8.95;7.08;;;;;;;36.79;38.36;100845.20;1830583;78;21087;-61
2021/08/01 06:57:26;;;;;;;11.68;7.10;;;;;;;36.95;38.33;100840.16;1830543;78;21091;-61
2021/08/01 06:59:55;;;;;;;12.23;7.95;;;;;;;37.09;38.16;100842.47;1830382;78;21151;-61
2021/08/01 07:02:24;;;;;;;10.00;6.90;;;;;;;37.31;37.32;100839.75;1830567;78;21083;-61
2021/08/01 07:04:52;;;;;;;10.88;7.22;;;;;;;37.56;36.86;100840.39;1830568;78;21075;-61
2021/08/01 07:07:21;;;;;;;12.28;7.42;;;;;;;37.58;36.37;100843.73;1830578;78;21039;-61
2021/08/01 07:09:50;;;;;;;10.30;7.30;;;;;;;37.83;36.40;100846.82;1830582;78;21075;-61
2021/08/01 07:12:19;;;;;;;12.60;7.10;;;;;;;38.02;35.87;100847.55;1830409;78;21141;-62
2021/08/01 07:14:48;;;;;;;11.22;7.03;;;;;;;38.20;35.59;100845.22;1830518;78;21478;-61
2021/08/01 07:17:22;;;;;;;10.43;6.85;;;;;;;38.20;35.09;100836.97;1830548;78;21103;-61
2021/08/01 07:19:50;;;;;;;13.25;7.20;;;;;;;38.20;34.96;100839.20;1830563;78;21060;-61
2021/08/01 07:22:19;;;;;;;8.88;7.55;;;;;;;38.31;34.97;100849.89;1830656;78;21059;-61
2021/08/01 07:24:48;;;;;;;9.60;7.72;;;;;;;38.56;34.85;100836.40;1830366;78;21051;-61
2021/08/01 07:27:17;;;;;;;13.00;8.15;;;;;;;38.70;34.78;100837.79;1830570;78;21514;-60
2021/08/01 07:29:46;;;;;;;9.18;7.53;;;;;;;38.81;34.53;100836.08;1830575;78;21079;-61
2021/08/01 07:32:15;;;;;;;11.00;7.70;;;;;;;38.79;34.84;100830.81;1830726;78;21173;-61
2021/08/01 07:34:43;;;;;;;10.25;7.72;;;;;;;38.96;34.34;100830.03;1830568;78;21466;-61
2021/08/01 07:37:12;;;;;;;12.35;7.30;;;;;;;39.18;34.14;100824.13;1830477;78;21095;-62
2021/08/01 07:39:41;;;;;;;12.73;7.22;;;;;;;39.21;33.44;100816.45;1830514;78;21487;-61
2021/08/01 07:42:10;;;;;;;13.40;8.70;;;;;;;39.00;33.64;100809.17;1830477;78;21079;-61
2021/08/01 07:44:48;;;;;;;10.18;7.53;;;;;;;39.12;33.78;100814.64;1830487;78;21514;-61
2021/08/01 07:47:19;;;;;;;12.15;7.62;;;;;;;39.00;34.02;100809.17;1853325;77;21090;-61
2021/08/01 07:49:49;;;;;;;9.08;7.37;;;;;;;39.14;33.38;100811.95;1828795;78;21056;-61
2021/08/01 07:52:18;;;;;;;11.22;7.65;;;;;;;39.21;33.15;100805.44;1863574;77;21501;-61
2021/08/01 07:54:48;;;;;;;10.00;7.25;;;;;;;39.51;33.29;100803.23;1828803;78;21502;-61
2021/08/01 07:57:25;;;;;;;10.95;7.87;;;;;;;39.86;32.90;100802.09;1863696;77;21472;-61
2021/08/01 07:59:55;;;;;;;9.13;6.90;;;;;;;40.05;32.58;100801.83;1863239;77;21576;-61
2021/08/01 08:02:24;;;;;;;13.58;7.00;;;;;;;40.09;32.07;100797.47;1828656;78;21478;-61
2021/08/01 08:04:54;;;;;;;10.80;7.58;;;;;;;40.10;31.76;100796.36;1863674;77;21045;-61
2021/08/01 08:07:23;;;;;;;10.90;7.37;;;;;;;39.98;31.35;100797.05;1828819;78;21467;-61
2021/08/01 08:09:52;;;;;;;8.58;6.83;;;;;;;39.92;31.41;100806.61;1863656;77;21497;-61
2021/08/01 08:12:20;;;;;;;9.95;6.65;;;;;;;39.92;31.30;100798.34;1863635;77;21144;-61
2021/08/01 08:14:49;;;;;;;11.03;7.50;;;;;;;40.10;31.26;100789.47;1828655;78;21506;-61
2021/08/01 08:17:17;;;;;;;12.40;7.83;;;;;;;40.11;31.00;100791.15;1863517;77;21120;-61
2021/08/01 08:19:46;;;;;;;10.48;7.35;;;;;;;40.25;31.51;100788.30;1863557;77;21168;-61
2021/08/01 08:22:15;;;;;;;8.38;6.95;;;;;;;40.50;31.49;100789.16;1828740;78;21150;-60
2021/08/01 08:24:43;;;;;;;9.63;7.05;;;;;;;40.63;31.24;100777.45;1863529;77;21115;-61
2021/08/01 08:27:12;;;;;;;8.93;6.67;;;;;;;40.74;30.83;100788.05;1828582;78;21130;-61
2021/08/01 08:29:41;;;;;;;7.90;6.45;;;;;;;40.83;30.57;100781.00;1863540;77;21104;-61
2021/08/01 08:32:10;;;;;;;11.78;6.72;;;;;;;41.11;30.17;100785.39;1828651;78;21052;-61
2021/08/01 08:34:39;;;;;;;9.23;7.03;;;;;;;41.30;29.44;100785.87;1863518;77;21078;-61
2021/08/01 08:37:09;;;;;;;11.12;6.47;;;;;;;41.50;29.33;100782.96;1828605;78;21174;-61
2021/08/01 08:39:37;;;;;;;10.65;6.90;;;;;;;41.62;28.99;100784.98;1863508;76;21077;-61
2021/08/01 08:42:06;;;;;;;8.35;6.20;;;;;;;41.55;28.65;100774.71;1863510;77;21160;-61
2021/08/01 08:44:36;;;;;;;9.38;6.60;;;;;;;41.38;28.44;100775.70;1863488;77;21528;-61
2021/08/01 08:47:07;;;;;;;9.50;6.87;;;;;;;41.46;29.09;100769.67;1859012;77;21086;-61
2021/08/01 08:49:37;;;;;;;7.42;5.90;;;;;;;41.74;29.24;100769.60;1849217;77;21521;-61
2021/08/01 08:52:09;;;;;;;8.83;5.93;;;;;;;41.77;28.45;100769.90;1849570;77;21102;-60
2021/08/01 08:54:38;;;;;;;;;;;;;;;41.64;28.34;100771.77;1852122;77;21215;-61
2021/08/01 08:57:26;;;;;;;8.70;5.83;;;;;;;41.81;28.89;100768.26;1849344;77;20110;-60
2021/08/01 09:00:06;;;;;;;9.18;6.22;;;;;;;41.77;28.24;100768.52;1849256;77;21116;-61
2021/08/01 09:02:35;;;;;;;11.70;5.90;;;;;;;41.77;28.41;100768.52;1849332;77;21023;-61
2021/08/01 09:05:09;;;;;;;9.30;5.10;;;;;;;41.83;27.74;100759.17;1849272;77;21513;-61
2021/08/01 09:07:40;;;;;;;13.08;5.47;;;;;;;41.56;26.91;100765.34;1849347;77;21098;-61
2021/08/01 09:10:12;;;;;;;12.45;5.65;;;;;;;41.38;26.92;100772.94;1849250;77;21058;-61
2021/08/01 09:12:46;;;;;;;8.08;5.53;;;;;;;41.28;26.60;100767.33;1849312;77;21486;-61
2021/08/01 09:15:18;;;;;;;13.88;6.10;;;;;;;41.25;27.09;100767.88;1849360;77;21058;-61
2021/08/01 09:17:48;;;;;;;9.63;4.95;;;;;;;41.23;27.20;100765.38;1849452;77;21093;-61
2021/08/01 09:20:19;;;;;;;8.55;5.00;;;;;;;41.07;26.89;100767.12;1849324;77;21618;-61
2021/08/01 09:23:01;;;;;;;;;;;;;;;41.14;26.88;100759.20;1852104;77;21485;-61
2021/08/01 09:25:32;;;;;;;12.65;5.83;;;;;;;41.14;26.93;100767.48;1849595;77;20111;-61
2021/08/01 09:28:13;;;;;;;6.87;5.15;;;;;;;40.88;27.05;100758.97;1849435;77;21042;-61
2021/08/01 09:30:53;;;;;;;9.35;4.70;;;;;;;40.97;26.97;100758.78;1849318;77;21559;-61
2021/08/01 09:33:45;;;;;;;6.10;5.25;;;;;;;41.16;26.66;100762.52;1849275;77;21442;-61
2021/08/01 09:36:20;;;;;;;10.50;5.50;;;;;;;41.07;26.34;100765.75;1849358;77;21203;-61
2021/08/01 09:39:00;;;;;;;8.90;5.10;;;;;;;41.21;26.98;100762.60;1849379;77;21148;-61
2021/08/01 09:41:37;;;;;;;9.78;4.55;;;;;;;41.23;26.49;100764.55;1848733;77;21051;-64
2021/08/01 09:44:12;;;;;;;5.83;4.30;;;;;;;41.18;25.68;100757.00;1849260;77;21079;-63
2021/08/01 09:46:45;;;;;;;6.05;3.95;;;;;;;41.04;25.62;100751.64;1851409;77;21580;-65
2021/08/01 09:49:19;;;;;;;11.48;4.45;;;;;;;40.69;25.18;100746.03;1863749;76;21584;-67
2021/08/01 09:51:53;;;;;;;8.53;4.25;;;;;;;40.52;25.42;100749.77;1863173;77;21082;-65
2021/08/01 09:54:25;;;;;;;8.60;4.60;;;;;;;40.56;25.41;100747.31;1861165;77;21080;-62
2021/08/01 09:56:57;;;;;;;;;;;;;;;40.71;26.28;100736.42;1866229;77;21490;-61
2021/08/01 09:59:28;;;;;;;12.47;4.97;;;;;;;40.90;26.46;100737.45;1865812;77;20360;-60
2021/08/01 10:01:59;;;;;;;10.80;5.33;;;;;;;40.91;26.55;100734.95;1862776;77;21093;-60
2021/08/01 10:04:30;;;;;;;9.13;4.70;;;;;;;41.02;26.95;100732.59;1861206;77;21046;-60
2021/08/01 10:07:04;;;;;;;12.97;5.40;;;;;;;41.00;26.36;100727.86;1866058;77;21015;-60
2021/08/01 10:09:33;;;;;;;8.73;4.53;;;;;;;40.97;25.93;100725.64;1870417;75;21087;-60
2021/08/01 10:12:03;;;;;;;10.58;4.10;;;;;;;40.84;25.50;100721.95;1870406;77;21518;-61
2021/08/01 10:14:32;;;;;;;7.10;4.03;;;;;;;40.65;25.29;100721.45;1870719;77;21059;-61
2021/08/01 10:17:02;;;;;;;10.10;4.47;;;;;;;40.40;25.19;100723.41;1863764;77;21115;-61
2021/08/01 10:19:32;;;;;;;9.88;4.42;;;;;;;40.24;25.33;100720.44;1859760;77;21148;-61
2021/08/01 10:22:03;;;;;;;8.65;4.30;;;;;;;40.15;25.03;100721.98;1866169;77;21564;-61
2021/08/01 10:24:50;;;;;;;10.43;4.28;;;;;;;40.10;25.10;100720.53;1870628;75;21055;-61
2021/08/01 10:27:19;;;;;;;8.40;3.77;;;;;;;40.14;24.71;100717.58;1863350;77;21054;-62
2021/08/01 10:29:49;;;;;;;11.45;4.33;;;;;;;39.98;24.45;100715.17;1861414;77;21493;-67
2021/08/01 10:32:23;;;;;;;8.18;4.20;;;;;;;39.65;25.08;100718.84;1860155;77;21058;-68
2021/08/01 10:35:01;;;;;;;6.53;3.40;;;;;;;39.43;25.42;100726.47;1859721;77;21453;-66
2021/08/01 10:37:37;;;;;;;8.00;3.67;;;;;;;39.26;24.96;100722.91;1894573;75;21116;-62
2021/08/01 10:40:08;;;;;;;11.57;3.90;;;;;;;38.98;25.07;100716.38;1902643;75;21160;-66
2021/08/01 10:42:42;;;;;;;9.18;3.45;;;;;;;38.88;25.29;100716.20;1864210;75;21086;-65
2021/08/01 10:45:12;;;;;;;6.72;3.47;;;;;;;38.86;25.23;100709.56;1858724;77;21055;-62
2021/08/01 10:47:44;;;;;;;7.65;3.90;;;;;;;38.78;24.76;100709.43;1864625;77;21043;-59
2021/08/01 10:50:27;;;;;;;6.55;3.98;;;;;;;38.68;24.55;100708.41;1856397;77;21514;-65
2021/08/01 10:53:25;;;;;;;9.80;4.28;;;;;;;38.60;24.41;100707.73;1847843;76;21050;-65
2021/08/01 10:56:08;;;;;;;5.90;3.45;;;;;;;38.36;24.97;100701.48;1850337;77;21537;-66
2021/08/01 10:58:41;;;;;;;6.83;3.45;;;;;;;38.13;24.73;100693.34;1856098;77;21460;-65
2021/08/01 11:01:10;;;;;;;12.45;4.05;;;;;;;38.04;24.46;100694.23;1854278;77;21445;-64
2021/08/01 11:03:41;;;;;;;4.67;3.47;;;;;;;37.92;24.77;100694.23;1849151;77;21579;-63
2021/08/01 11:06:38;;;;;;;5.25;4.25;;;;;;;37.64;25.23;100705.46;1849596;77;21137;-66
2021/08/01 11:09:13;;;;;;;8.68;4.00;;;;;;;37.38;25.88;100700.44;1831767;77;21144;-65
2021/08/01 11:11:45;;;;;;;9.23;3.72;;;;;;;37.25;26.46;100700.14;1849185;77;21140;-61
2021/08/01 11:14:32;;;;;;;14.03;3.90;;;;;;;37.24;26.83;100689.70;1849173;77;21132;-60
2021/08/01 11:17:00;;;;;;;9.65;4.58;;;;;;;37.32;27.22;100691.80;1849211;77;21555;-61
2021/08/01 11:19:34;;;;;;;7.30;3.62;;;;;;;37.37;26.95;100685.89;1849242;77;21054;-61
2021/08/01 11:22:03;;;;;;;10.63;4.00;;;;;;;37.39;26.76;100689.23;1849447;77;21124;-61
2021/08/01 11:24:32;;;;;;;8.03;3.75;;;;;;;37.16;26.83;100691.42;1849176;77;21513;-61
2021/08/01 11:27:12;;;;;;;10.10;3.95;;;;;;;36.99;26.55;100691.25;1849266;77;21128;-61
2021/08/01 11:30:00;;;;;;;7.50;3.90;;;;;;;36.77;26.93;100697.00;1849248;77;21074;-61
2021/08/01 11:32:29;;;;;;;7.12;3.47;;;;;;;36.71;27.34;100687.81;1848775;77;21226;-62
2021/08/01 11:35:18;;;;;;;7.70;3.55;;;;;;;36.70;27.14;100688.86;1849126;77;21541;-62
2021/08/01 11:37:47;;;;;;;9.28;3.90;;;;;;;36.58;27.09;100687.44;1849284;77;21050;-61
2021/08/01 11:40:16;;;;;;;8.50;3.42;;;;;;;36.52;27.10;100689.21;1849200;77;21132;-61
2021/08/01 11:42:46;;;;;;;7.60;3.58;;;;;;;36.47;27.11;100698.66;1849227;77;21082;-61